• Join FlightAware (Why Join?)
  • Login
  • US Flag 
10:58AM EDT


 

Airport Tracker/Info


-or-


 

Live Flight TrackerFlight Track Log ✈ SKW6440 ✈ 24-Apr-2013 ✈ KLAX - KCOS

Flight Track Log - Related Links

Times and Time Zones

All times are in EDT time to prevent confusion due to time zone crossing. See the SKW6440 flight status page for this flight to view local times or setup timezone preferences in your user account.

Time Position Orientation Groundspeed Altitude Reporting Facility
EDT Latitude Longitude Course Direction KTS MPH feet Rate Location/Type
06:48PM 33.9333 -118.4500 55° Northeast 171 197 1,600  Level Southern California TRACON
06:49PM 33.9086 -118.5178 246° West 212 244 4,200 1,860 Climbing Los Angeles Center
06:50PM 34.1326 -118.0680 59° Northeast  Level FlightAware Approximate
06:50PM 33.8731 -118.5950 241° Southwest 245 282 5,700  Level Los Angeles Center
06:51PM 34.2020 -117.9294 59° Northeast  Level FlightAware Approximate
06:51PM 33.8319 -118.5619 146° Southeast 249 287 7,900  Level Los Angeles Center
06:52PM 34.2761 -117.8072 40° Northeast  Level FlightAware Approximate
06:52PM 33.8900 -118.4828 49° Northeast 287 330 10,900  Level Los Angeles Center
06:53PM 34.3464 -117.6729 55° Northeast  Level FlightAware Approximate
06:53PM 33.9431 -118.4189 45° Northeast 300 345 12,700  Level Los Angeles Center
06:54PM 33.9925 -118.3278 57° Northeast 321 369 15,100 2,520 Climbing Los Angeles Center
06:55PM 34.0564 -118.2156 55° Northeast 336 387 18,000 2,100 Climbing Los Angeles Center
06:56PM 34.1003 -118.1383 56° Northeast 343 395 19,500 1,680 Climbing Los Angeles Center
06:57PM 34.1683 -118.0178 56° Northeast 359 413 21,600 1,740 Climbing Los Angeles Center
06:58PM 34.2275 -117.9122 56° Northeast 376 433 23,200 1,500 Climbing Los Angeles Center
06:59PM 34.2900 -117.8036 55° Northeast 391 450 24,800 1,500 Climbing Los Angeles Center
07:00PM 34.3614 -117.7031 49° Northeast 393 452 26,300 1,440 Climbing Los Angeles Center
07:01PM 34.4394 -117.5925 49° Northeast 405 466 27,800 1,320 Climbing Los Angeles Center
07:02PM 34.5122 -117.4861 50° Northeast 412 474 29,100 1,440 Climbing Los Angeles Center
07:03PM 34.6003 -117.3597 50° Northeast 413 475 30,800 1,260 Climbing Los Angeles Center
07:05PM 34.6731 -117.2528 50° Northeast 414 476 31,800 720 Climbing Los Angeles Center
07:06PM 34.7481 -117.1453 50° Northeast 418 481 32,400 600 Climbing Los Angeles Center
07:07PM 34.8256 -117.0325 50° Northeast 435 501 33,100 660 Climbing Los Angeles Center
07:08PM 34.9033 -116.9189 50° Northeast 440 506 33,800 780 Climbing Los Angeles Center
07:09PM 34.9983 -116.7794 50° Northeast 448 516 34,800 960 Climbing Los Angeles Center
07:10PM 35.0769 -116.6631 50° Northeast 448 516 35,800 780 Climbing Los Angeles Center
07:11PM 35.1561 -116.5489 50° Northeast 444 511 36,500 660 Climbing Los Angeles Center
07:12PM 35.2339 -116.4331 51° Northeast 442 509 37,200 480 Climbing Los Angeles Center
07:13PM 35.3136 -116.3144 51° Northeast 450 518 37,500 300 Climbing Los Angeles Center
07:14PM 35.4097 -116.1694 51° Northeast 457 526 37,900 480 Climbing Los Angeles Center
07:15PM 35.4919 -116.0494 50° Northeast 460 529 38,500 420 Climbing Los Angeles Center
07:16PM 35.5733 -115.9264 51° Northeast 464 534 38,800 240 Climbing Los Angeles Center
07:17PM 35.6531 -115.8078 50° Northeast 464 534 39,000 60 Climbing Los Angeles Center
07:18PM 35.7533 -115.6578 50° Northeast 472 543 39,000  Level Los Angeles Center
07:19PM 35.8364 -115.5322 51° Northeast 475 547 39,000  Level Los Angeles Center
07:20PM 35.9192 -115.4061 51° Northeast 476 548 39,000  Level Los Angeles Center
07:21PM 36.0019 -115.2803 51° Northeast 475 547 39,000  Level Los Angeles Center
07:22PM 36.0758 -115.1433 56° Northeast 486 559 39,000  Level Los Angeles Center
07:23PM 36.1164 -114.9531 75° East 482 555 39,000  Level Los Angeles Center
07:24PM 36.1450 -114.7919 78° East 482 555 39,000  Level Los Angeles Center
07:25PM 36.1725 -114.6292 78° East 484 557 39,000  Level Los Angeles Center
07:26PM 36.2006 -114.4658 78° East 486 559 39,000  Level Los Angeles Center
07:27PM 36.2281 -114.3022 78° East 487 560 39,000  Level Los Angeles Center
07:28PM 36.2614 -114.1044 78° East 489 563 39,000  Level Los Angeles Center
07:29PM 36.2897 -113.9383 78° East 491 565 39,000  Level Los Angeles Center
07:30PM 36.3169 -113.7722 78° East 493 567 39,000  Level Los Angeles Center
07:31PM 36.3447 -113.6053 78° East 494 568 39,000  Level Los Angeles Center
07:32PM 36.3722 -113.4375 78° East 497 572 39,000  Level Los Angeles Center
07:33PM 36.3947 -113.3017 78° East 501 577 39,000  Level Los Angeles Center
07:35PM 36.4317 -113.0689 79° East 501 577 39,000  Level Los Angeles Center
07:36PM 36.4589 -112.8981 79° East 505 581 39,000  Level Los Angeles Center
07:37PM 36.4853 -112.7267 79° East 507 583 39,000  Level Los Angeles Center
07:38PM 36.5119 -112.5547 79° East 509 586 39,000  Level Los Angeles Center
07:39PM 36.5389 -112.3817 79° East 512 589 39,000  Level Los Angeles Center
07:40PM 36.5706 -112.1739 79° East 513 590 39,000 -240 Level Los Angeles Center
07:41PM 36.5958 -111.9994 80° East 514 592 38,600 -720 Descending Los Angeles Center
07:42PM 36.6219 -111.8250 79° East 515 593 37,600 -960 Descending Los Angeles Center
07:42PM 36.6364 -111.7211 80° East 515 593 37,000 -360 Descending Denver Center
07:43PM 36.6619 -111.5503 79° East 509 586 37,000  Level Denver Center
07:44PM 36.6919 -111.3453 80° East 505 581 37,000  Level Denver Center
07:46PM 36.7169 -111.1711 80° East 510 587 37,000  Level Denver Center
07:47PM 36.7408 -110.9953 80° East 515 593 37,000  Level Denver Center
07:48PM 36.7653 -110.8178 80° East 520 598 37,000  Level Denver Center
07:49PM 36.7908 -110.6422 80° East 516 594 37,000 -180 Level Denver Center
07:50PM 36.8139 -110.4669 81° East 515 593 36,700 -780 Descending Denver Center
07:51PM 36.8414 -110.2581 81° East 511 588 35,500 -840 Descending Denver Center
07:52PM 36.8636 -110.0944 80° East 512 589 35,000 -300 Descending Denver Center
07:53PM 36.8894 -109.8986 81° East 511 588 35,000  Level Denver Center
07:54PM 36.9122 -109.7269 81° East 520 598 35,000  Level Denver Center
07:55PM 36.9428 -109.5025 80° East 512 589 35,000  Level Denver Center
07:56PM 36.9917 -109.3419 69° East 513 590 35,000  Level Denver Center
07:57PM 37.0489 -109.1536 69° East 516 594 35,000  Level Denver Center
07:58PM 37.0986 -108.9933 69° East 515 593 35,000  Level Denver Center
07:59PM 37.1558 -108.8019 69° East 521 600 35,000  Level Denver Center
08:00PM 37.2047 -108.6389 69° East 521 600 35,000  Level Denver Center
08:01PM 37.2608 -108.4489 70° East 520 598 35,000  Level Denver Center
08:02PM 37.3092 -108.2875 69° East 514 592 35,000  Level Denver Center
08:03PM 37.3650 -108.0967 70° East 520 598 35,000  Level Denver Center
08:04PM 37.4119 -107.9317 70° East 521 600 35,000  Level Denver Center
08:05PM 37.4678 -107.7414 70° East 519 597 35,000  Level Denver Center
08:06PM 37.5136 -107.5797 70° East 514 592 35,000  Level Denver Center
08:07PM 37.5683 -107.3892 70° East 516 594 35,000  Level Denver Center
08:09PM 37.6144 -107.2267 70° East 516 594 35,000 -60 Level Denver Center
08:10PM 37.6686 -107.0358 70° East 516 594 34,900 -1,200 Descending Denver Center
08:11PM 37.7139 -106.8747 70° East 511 588 32,600 -2,280 Descending Denver Center
08:12PM 37.7597 -106.7067 71° East 523 602 30,200 -2,520 Descending Denver Center
08:13PM 37.8122 -106.5189 70° East 510 587 27,400 -1,560 Descending Denver Center
08:14PM 37.8575 -106.3539 71° East 517 595 27,000 -540 Descending Denver Center
08:15PM 37.9108 -106.1569 71° East 524 603 26,400 -780 Descending Denver Center
08:16PM 37.9586 -105.9803 71° East 525 604 25,400 -1,020 Descending Denver Center
08:17PM 38.0044 -105.8106 71° East 508 585 24,400 -1,020 Descending Denver Center
08:18PM 38.0478 -105.6464 71° East 495 570 23,300 -720 Descending Denver Center
08:19PM 38.0911 -105.4842 71° East 486 559 23,000 -180 Descending Denver Center
08:20PM 38.1417 -105.2939 71° East 485 558 23,000 -780 Level Denver Center
08:21PM 38.1844 -105.1294 72° East 486 559 21,500 -2,100 Descending Denver Center
08:22PM 38.2256 -104.9689 72° East 483 556 18,700 -2,520 Descending Denver Center
08:23PM 38.2642 -104.8183 72° East 468 539 16,300 -2,160 Descending Denver Center
08:24PM 38.3061 -104.6906 67° East 436 502 14,300 -1,140 Descending Denver Center
08:25PM 38.4006 -104.6547 17° North 377 434 14,000 -480 Descending Denver Center
08:26PM 38.4953 -104.6300 12° North 353 406 13,400 -900 Descending Denver Center
08:27PM 38.6081 -104.6039 10° North 349 402 12,200 -1,200 Descending Denver Center
08:28PM 38.7053 -104.5975 North 349 402 11,000 -1,020 Descending Denver Center
08:29PM 38.7894 -104.6042 356° North 319 367 10,200 -660 Descending Denver Center
08:30PM 38.8606 -104.6064 359° North 276 318 9,700 -780 Descending Denver Center
08:31PM 38.8992 -104.6367 329° Northwest 215 247 8,700 -1,020 Descending Denver Center
08:33PM 38.8230 -104.6885 201° Southwest  Level FlightAware Approximate
08:40PM 38.8000 -104.7000 201° Southwest  Level FlightAware Approximate
08:41PM 38.8058 -104.7008 201° Southwest  Level Estimated